Walkerville, Illinois
Current Conditions -  °F | °C
As of 2:35 PM on Saturday 20 Dec 2014 (Local Time) from KPPQ Reporting Station
Drizzle Drizzle  
Wind Chill: 33°   Ceiling: 1100
Heat Index: 37°   Visibility: 4mi
Dew Point: 34°   Wind: 5mph
Humidity: 89%   Direction: 150°SSE
Pressure: 30.21"   Gusts: NA
Location:  39.403°N, 90.4171°W
Report Text: KPPQ 202035Z AUTO 15004KT 4SM -DZ BKN011 OVC019 03/01 A3021 RMK AO2 T00270010
Loading
Personal Weather Stations






























Interactive Weather Map New forecast layout! Learn more

10-Day Weather Forecast

Advertisements
Track Severe Weather on mobile